Terminal Aerodrome Forecast
Issued by NWS Sioux Falls, SD

Home | Current Version | Previous Version | Text Only | Print | Product List | Glossary On
Versions: 1 2 3 4 5 6 7 8 9 10 11 12 13 14 15 16 17 18 19 20 21
000
FTUS43 KFSD 011724
TAFSUX
TAF
KSUX 011724Z 0118/0218 19021G32KT P6SM FEW200
     FM012100 22015G26KT P6SM SCT040 BKN070
      TEMPO 0200/0202 2SM TSRA BR OVC035CB
     FM020200 26014KT 6SM -SHRA OVC040
     FM020330 33012G18KT P6SM SCT050 BKN100
     FM020500 32008KT P6SM SCT250=

USA.gov is the U.S. government's official web portal to all federal, state and local government web resources and services.